sensor_id;sensor_type;location;lat;lon;timestamp;temperature;humidity
29403;DHT22;16382;59.942;30.472;2023-04-15T00:00:42;2.70;60.40
29403;DHT22;16382;59.942;30.472;2023-04-15T00:03:10;2.70;60.90
29403;DHT22;16382;59.942;30.472;2023-04-15T00:05:37;2.70;60.40
29403;DHT22;16382;59.942;30.472;2023-04-15T00:08:04;2.70;60.10
29403;DHT22;16382;59.942;30.472;2023-04-15T00:10:32;2.60;60.00
29403;DHT22;16382;59.942;30.472;2023-04-15T00:13:01;2.60;60.20
29403;DHT22;16382;59.942;30.472;2023-04-15T00:15:29;2.60;60.70
29403;DHT22;16382;59.942;30.472;2023-04-15T00:17:56;2.60;60.60
29403;DHT22;16382;59.942;30.472;2023-04-15T00:20:24;2.60;60.40
29403;DHT22;16382;59.942;30.472;2023-04-15T00:22:51;2.60;60.10
29403;DHT22;16382;59.942;30.472;2023-04-15T00:25:19;2.60;59.80
29403;DHT22;16382;59.942;30.472;2023-04-15T00:27:46;2.60;60.40
29403;DHT22;16382;59.942;30.472;2023-04-15T00:30:15;2.60;60.40
29403;DHT22;16382;59.942;30.472;2023-04-15T00:32:43;2.60;60.30
29403;DHT22;16382;59.942;30.472;2023-04-15T00:35:11;2.60;60.00
29403;DHT22;16382;59.942;30.472;2023-04-15T00:37:39;2.60;60.40
29403;DHT22;16382;59.942;30.472;2023-04-15T00:40:11;2.60;60.60
29403;DHT22;16382;59.942;30.472;2023-04-15T00:42:40;2.60;60.60
29403;DHT22;16382;59.942;30.472;2023-04-15T00:45:08;2.60;60.60
29403;DHT22;16382;59.942;30.472;2023-04-15T00:47:38;2.50;60.70
29403;DHT22;16382;59.942;30.472;2023-04-15T00:50:08;2.50;60.70
29403;DHT22;16382;59.942;30.472;2023-04-15T00:52:35;2.50;60.90
29403;DHT22;16382;59.942;30.472;2023-04-15T00:55:05;2.50;60.60
29403;DHT22;16382;59.942;30.472;2023-04-15T00:57:34;2.50;60.40
29403;DHT22;16382;59.942;30.472;2023-04-15T01:00:02;2.50;60.90
29403;DHT22;16382;59.942;30.472;2023-04-15T01:02:33;2.50;60.80
29403;DHT22;16382;59.942;30.472;2023-04-15T01:05:03;2.50;60.60
29403;DHT22;16382;59.942;30.472;2023-04-15T01:07:32;2.50;60.80
29403;DHT22;16382;59.942;30.472;2023-04-15T01:09:59;2.50;60.80
29403;DHT22;16382;59.942;30.472;2023-04-15T01:12:31;2.50;61.10
29403;DHT22;16382;59.942;30.472;2023-04-15T01:14:59;2.50;61.40
29403;DHT22;16382;59.942;30.472;2023-04-15T01:17:29;2.50;61.10
29403;DHT22;16382;59.942;30.472;2023-04-15T01:19:56;2.40;61.20
29403;DHT22;16382;59.942;30.472;2023-04-15T01:22:26;2.40;61.70
29403;DHT22;16382;59.942;30.472;2023-04-15T01:25:04;2.40;61.80
29403;DHT22;16382;59.942;30.472;2023-04-15T01:27:35;2.40;61.50
29403;DHT22;16382;59.942;30.472;2023-04-15T01:30:08;2.30;62.50
29403;DHT22;16382;59.942;30.472;2023-04-15T01:32:36;2.30;62.10
29403;DHT22;16382;59.942;30.472;2023-04-15T01:35:22;2.30;62.10
29403;DHT22;16382;59.942;30.472;2023-04-15T01:37:50;2.30;62.10
29403;DHT22;16382;59.942;30.472;2023-04-15T01:40:19;2.30;62.20
29403;DHT22;16382;59.942;30.472;2023-04-15T01:42:50;2.30;62.80
29403;DHT22;16382;59.942;30.472;2023-04-15T01:45:18;2.30;62.40
29403;DHT22;16382;59.942;30.472;2023-04-15T01:47:47;2.30;62.30
29403;DHT22;16382;59.942;30.472;2023-04-15T01:50:16;2.30;62.30
29403;DHT22;16382;59.942;30.472;2023-04-15T01:52:46;2.30;62.60
29403;DHT22;16382;59.942;30.472;2023-04-15T01:55:15;2.30;62.50
29403;DHT22;16382;59.942;30.472;2023-04-15T01:57:46;2.30;62.80
29403;DHT22;16382;59.942;30.472;2023-04-15T02:00:16;2.30;62.50
29403;DHT22;16382;59.942;30.472;2023-04-15T02:02:44;2.30;62.40
29403;DHT22;16382;59.942;30.472;2023-04-15T02:05:13;2.30;62.60
29403;DHT22;16382;59.942;30.472;2023-04-15T02:07:47;2.30;62.80
29403;DHT22;16382;59.942;30.472;2023-04-15T02:10:16;2.30;62.20
29403;DHT22;16382;59.942;30.472;2023-04-15T02:12:44;2.30;61.90
29403;DHT22;16382;59.942;30.472;2023-04-15T02:15:13;2.30;62.00
29403;DHT22;16382;59.942;30.472;2023-04-15T02:17:43;2.30;62.10
29403;DHT22;16382;59.942;30.472;2023-04-15T02:20:18;2.30;62.70
29403;DHT22;16382;59.942;30.472;2023-04-15T02:22:48;2.40;62.40
29403;DHT22;16382;59.942;30.472;2023-04-15T02:25:17;2.40;62.20
29403;DHT22;16382;59.942;30.472;2023-04-15T02:27:46;2.40;62.00
29403;DHT22;16382;59.942;30.472;2023-04-15T02:30:17;2.30;61.70
29403;DHT22;16382;59.942;30.472;2023-04-15T02:32:48;2.30;61.90
29403;DHT22;16382;59.942;30.472;2023-04-15T02:35:16;2.40;62.40
29403;DHT22;16382;59.942;30.472;2023-04-15T02:37:45;2.40;62.30
29403;DHT22;16382;59.942;30.472;2023-04-15T02:40:14;2.40;62.00
29403;DHT22;16382;59.942;30.472;2023-04-15T02:42:43;2.40;61.90
29403;DHT22;16382;59.942;30.472;2023-04-15T02:45:14;2.40;62.00
29403;DHT22;16382;59.942;30.472;2023-04-15T02:47:50;2.40;61.90
29403;DHT22;16382;59.942;30.472;2023-04-15T02:50:19;2.40;61.70
29403;DHT22;16382;59.942;30.472;2023-04-15T02:52:49;2.40;61.50
29403;DHT22;16382;59.942;30.472;2023-04-15T02:55:18;2.40;61.60
29403;DHT22;16382;59.942;30.472;2023-04-15T02:57:47;2.40;61.80
29403;DHT22;16382;59.942;30.472;2023-04-15T03:00:15;2.50;61.20
29403;DHT22;16382;59.942;30.472;2023-04-15T03:02:46;2.40;61.20
29403;DHT22;16382;59.942;30.472;2023-04-15T03:05:19;2.50;61.50
29403;DHT22;16382;59.942;30.472;2023-04-15T03:07:51;2.50;60.80
29403;DHT22;16382;59.942;30.472;2023-04-15T03:10:20;2.50;61.00
29403;DHT22;16382;59.942;30.472;2023-04-15T03:12:49;2.50;60.90
29403;DHT22;16382;59.942;30.472;2023-04-15T03:15:20;2.50;60.60
29403;DHT22;16382;59.942;30.472;2023-04-15T03:17:52;2.60;60.30
29403;DHT22;16382;59.942;30.472;2023-04-15T03:20:22;2.60;60.10
29403;DHT22;16382;59.942;30.472;2023-04-15T03:22:50;2.60;60.30
29403;DHT22;16382;59.942;30.472;2023-04-15T03:25:21;2.60;60.40
29403;DHT22;16382;59.942;30.472;2023-04-15T03:27:50;2.60;60.40
29403;DHT22;16382;59.942;30.472;2023-04-15T03:30:18;2.60;60.40
29403;DHT22;16382;59.942;30.472;2023-04-15T03:32:47;2.70;60.70
29403;DHT22;16382;59.942;30.472;2023-04-15T03:35:16;2.70;60.00
29403;DHT22;16382;59.942;30.472;2023-04-15T03:37:46;2.70;60.10
29403;DHT22;16382;59.942;30.472;2023-04-15T03:40:15;2.80;60.30
29403;DHT22;16382;59.942;30.472;2023-04-15T03:42:43;2.80;60.20
29403;DHT22;16382;59.942;30.472;2023-04-15T03:45:12;2.80;60.10
29403;DHT22;16382;59.942;30.472;2023-04-15T03:47:41;2.80;59.90
29403;DHT22;16382;59.942;30.472;2023-04-15T03:50:10;2.80;60.00
29403;DHT22;16382;59.942;30.472;2023-04-15T03:52:38;2.80;60.60
29403;DHT22;16382;59.942;30.472;2023-04-15T03:55:08;2.80;60.00
29403;DHT22;16382;59.942;30.472;2023-04-15T03:57:37;2.80;59.90
29403;DHT22;16382;59.942;30.472;2023-04-15T04:00:07;2.90;59.80
29403;DHT22;16382;59.942;30.472;2023-04-15T04:02:39;2.90;59.80
29403;DHT22;16382;59.942;30.472;2023-04-15T04:05:08;3.00;60.00
29403;DHT22;16382;59.942;30.472;2023-04-15T04:07:37;3.00;59.90
29403;DHT22;16382;59.942;30.472;2023-04-15T04:10:08;3.10;59.60
29403;DHT22;16382;59.942;30.472;2023-04-15T04:12:36;3.10;59.40
29403;DHT22;16382;59.942;30.472;2023-04-15T04:15:06;3.10;59.40
29403;DHT22;16382;59.942;30.472;2023-04-15T04:17:35;3.10;59.00
29403;DHT22;16382;59.942;30.472;2023-04-15T04:20:04;3.10;59.20
29403;DHT22;16382;59.942;30.472;2023-04-15T04:22:36;3.20;59.00
29403;DHT22;16382;59.942;30.472;2023-04-15T04:25:08;3.20;59.40
29403;DHT22;16382;59.942;30.472;2023-04-15T04:27:37;3.30;59.10
29403;DHT22;16382;59.942;30.472;2023-04-15T04:30:07;3.40;59.30
29403;DHT22;16382;59.942;30.472;2023-04-15T04:32:36;3.50;59.00
29403;DHT22;16382;59.942;30.472;2023-04-15T04:35:05;3.50;59.00
29403;DHT22;16382;59.942;30.472;2023-04-15T04:37:34;3.60;58.70
29403;DHT22;16382;59.942;30.472;2023-04-15T04:40:03;3.60;58.70
29403;DHT22;16382;59.942;30.472;2023-04-15T04:42:41;3.70;58.40
29403;DHT22;16382;59.942;30.472;2023-04-15T04:45:13;3.60;58.50
29403;DHT22;16382;59.942;30.472;2023-04-15T04:47:41;3.60;58.70
29403;DHT22;16382;59.942;30.472;2023-04-15T04:50:10;3.60;58.30
29403;DHT22;16382;59.942;30.472;2023-04-15T04:52:39;3.60;58.40
29403;DHT22;16382;59.942;30.472;2023-04-15T04:55:08;3.70;58.40
29403;DHT22;16382;59.942;30.472;2023-04-15T04:57:39;3.80;58.30
29403;DHT22;16382;59.942;30.472;2023-04-15T05:00:09;3.80;58.00
29403;DHT22;16382;59.942;30.472;2023-04-15T05:02:38;3.90;58.00
29403;DHT22;16382;59.942;30.472;2023-04-15T05:05:08;3.90;58.30
29403;DHT22;16382;59.942;30.472;2023-04-15T05:07:38;4.10;57.90
29403;DHT22;16382;59.942;30.472;2023-04-15T05:10:08;4.20;57.50
29403;DHT22;16382;59.942;30.472;2023-04-15T05:12:39;4.20;57.60
29403;DHT22;16382;59.942;30.472;2023-04-15T05:15:08;4.30;57.60
29403;DHT22;16382;59.942;30.472;2023-04-15T05:17:38;4.40;57.70
29403;DHT22;16382;59.942;30.472;2023-04-15T05:20:07;4.50;57.60
29403;DHT22;16382;59.942;30.472;2023-04-15T05:22:36;4.50;57.10
29403;DHT22;16382;59.942;30.472;2023-04-15T05:25:05;4.60;56.80
29403;DHT22;16382;59.942;30.472;2023-04-15T05:27:40;4.70;56.70
29403;DHT22;16382;59.942;30.472;2023-04-15T05:30:09;4.80;57.10
29403;DHT22;16382;59.942;30.472;2023-04-15T05:32:38;5.00;56.80
29403;DHT22;16382;59.942;30.472;2023-04-15T05:35:07;5.10;55.60
29403;DHT22;16382;59.942;30.472;2023-04-15T05:37:36;5.10;55.40
29403;DHT22;16382;59.942;30.472;2023-04-15T05:40:05;5.30;55.30
29403;DHT22;16382;59.942;30.472;2023-04-15T05:42:36;5.40;54.90
29403;DHT22;16382;59.942;30.472;2023-04-15T05:45:07;5.50;54.50
29403;DHT22;16382;59.942;30.472;2023-04-15T05:47:36;5.70;54.00
29403;DHT22;16382;59.942;30.472;2023-04-15T05:50:05;5.70;53.60
29403;DHT22;16382;59.942;30.472;2023-04-15T05:52:35;5.70;53.50
29403;DHT22;16382;59.942;30.472;2023-04-15T05:55:04;5.70;53.80
29403;DHT22;16382;59.942;30.472;2023-04-15T05:57:33;5.80;53.50
29403;DHT22;16382;59.942;30.472;2023-04-15T06:00:03;5.90;52.90
29403;DHT22;16382;59.942;30.472;2023-04-15T06:02:39;5.90;53.00
29403;DHT22;16382;59.942;30.472;2023-04-15T06:05:08;6.00;53.20
29403;DHT22;16382;59.942;30.472;2023-04-15T06:07:38;6.20;53.30
29403;DHT22;16382;59.942;30.472;2023-04-15T06:10:07;6.30;52.50
29403;DHT22;16382;59.942;30.472;2023-04-15T06:12:37;6.40;52.60
29403;DHT22;16382;59.942;30.472;2023-04-15T06:15:06;6.50;51.90
29403;DHT22;16382;59.942;30.472;2023-04-15T06:17:41;6.60;51.70
29403;DHT22;16382;59.942;30.472;2023-04-15T06:20:16;6.80;51.40
29403;DHT22;16382;59.942;30.472;2023-04-15T06:22:45;6.90;51.30
29403;DHT22;16382;59.942;30.472;2023-04-15T06:25:17;6.90;50.90
29403;DHT22;16382;59.942;30.472;2023-04-15T06:27:59;6.90;50.80
29403;DHT22;16382;59.942;30.472;2023-04-15T06:30:34;7.20;50.60
29403;DHT22;16382;59.942;30.472;2023-04-15T06:33:04;7.40;50.30
29403;DHT22;16382;59.942;30.472;2023-04-15T06:35:33;7.40;50.10
29403;DHT22;16382;59.942;30.472;2023-04-15T06:38:05;7.50;49.70
29403;DHT22;16382;59.942;30.472;2023-04-15T06:40:50;7.60;49.60
29403;DHT22;16382;59.942;30.472;2023-04-15T06:43:18;7.80;50.00
29403;DHT22;16382;59.942;30.472;2023-04-15T06:45:50;8.10;49.20
29403;DHT22;16382;59.942;30.472;2023-04-15T06:48:29;8.10;48.40
29403;DHT22;16382;59.942;30.472;2023-04-15T06:50:58;8.10;48.40
29403;DHT22;16382;59.942;30.472;2023-04-15T06:53:27;8.20;48.60
29403;DHT22;16382;59.942;30.472;2023-04-15T06:55:56;8.30;48.00
29403;DHT22;16382;59.942;30.472;2023-04-15T06:58:25;8.10;47.90
29403;DHT22;16382;59.942;30.472;2023-04-15T07:00:54;8.10;48.30
29403;DHT22;16382;59.942;30.472;2023-04-15T07:03:26;8.20;48.90
29403;DHT22;16382;59.942;30.472;2023-04-15T07:05:56;8.00;47.90
29403;DHT22;16382;59.942;30.472;2023-04-15T07:08:25;8.10;48.30
29403;DHT22;16382;59.942;30.472;2023-04-15T07:11:00;8.20;48.10
29403;DHT22;16382;59.942;30.472;2023-04-15T07:13:30;8.30;48.10
29403;DHT22;16382;59.942;30.472;2023-04-15T07:16:05;8.40;47.20
29403;DHT22;16382;59.942;30.472;2023-04-15T07:18:35;8.40;47.50
29403;DHT22;16382;59.942;30.472;2023-04-15T07:21:05;8.70;48.10
29403;DHT22;16382;59.942;30.472;2023-04-15T07:23:34;8.90;47.20
29403;DHT22;16382;59.942;30.472;2023-04-15T07:26:03;8.90;47.00
29403;DHT22;16382;59.942;30.472;2023-04-15T07:28:32;9.10;47.10
29403;DHT22;16382;59.942;30.472;2023-04-15T07:31:01;9.30;47.10
29403;DHT22;16382;59.942;30.472;2023-04-15T07:33:30;9.30;46.70
29403;DHT22;16382;59.942;30.472;2023-04-15T07:35:59;9.50;47.20
29403;DHT22;16382;59.942;30.472;2023-04-15T07:38:31;9.60;46.30
29403;DHT22;16382;59.942;30.472;2023-04-15T07:41:00;9.60;46.30
29403;DHT22;16382;59.942;30.472;2023-04-15T07:43:28;9.60;46.20
29403;DHT22;16382;59.942;30.472;2023-04-15T07:45:58;9.60;45.90
29403;DHT22;16382;59.942;30.472;2023-04-15T07:48:27;9.70;46.70
29403;DHT22;16382;59.942;30.472;2023-04-15T07:50:56;9.70;46.00
29403;DHT22;16382;59.942;30.472;2023-04-15T07:53:25;9.70;46.30
29403;DHT22;16382;59.942;30.472;2023-04-15T07:55:55;9.90;46.10
29403;DHT22;16382;59.942;30.472;2023-04-15T07:58:24;10.10;45.40
29403;DHT22;16382;59.942;30.472;2023-04-15T08:00:53;10.30;45.70
29403;DHT22;16382;59.942;30.472;2023-04-15T08:03:22;10.40;46.30
29403;DHT22;16382;59.942;30.472;2023-04-15T08:05:55;10.50;45.50
29403;DHT22;16382;59.942;30.472;2023-04-15T08:08:24;10.50;45.80
29403;DHT22;16382;59.942;30.472;2023-04-15T08:10:59;10.50;45.10
29403;DHT22;16382;59.942;30.472;2023-04-15T08:13:52;10.50;45.50
29403;DHT22;16382;59.942;30.472;2023-04-15T08:16:22;10.30;45.50
29403;DHT22;16382;59.942;30.472;2023-04-15T08:18:54;10.30;45.50
29403;DHT22;16382;59.942;30.472;2023-04-15T08:21:28;10.20;45.60
29403;DHT22;16382;59.942;30.472;2023-04-15T08:23:58;10.30;46.20
29403;DHT22;16382;59.942;30.472;2023-04-15T08:26:33;10.40;45.60
29403;DHT22;16382;59.942;30.472;2023-04-15T08:29:02;10.30;46.00
29403;DHT22;16382;59.942;30.472;2023-04-15T08:31:31;10.40;46.70
29403;DHT22;16382;59.942;30.472;2023-04-15T08:34:00;10.50;45.30
29403;DHT22;16382;59.942;30.472;2023-04-15T08:36:28;10.50;45.80
29403;DHT22;16382;59.942;30.472;2023-04-15T08:38:58;10.70;45.60
29403;DHT22;16382;59.942;30.472;2023-04-15T08:41:32;10.70;44.80
29403;DHT22;16382;59.942;30.472;2023-04-15T08:44:08;10.80;44.90
29403;DHT22;16382;59.942;30.472;2023-04-15T08:46:37;10.90;44.70
29403;DHT22;16382;59.942;30.472;2023-04-15T08:49:09;11.00;43.40
29403;DHT22;16382;59.942;30.472;2023-04-15T08:51:42;10.90;43.00
29403;DHT22;16382;59.942;30.472;2023-04-15T08:54:11;11.00;44.30
29403;DHT22;16382;59.942;30.472;2023-04-15T08:56:41;11.40;44.00
29403;DHT22;16382;59.942;30.472;2023-04-15T08:59:10;11.70;44.10
29403;DHT22;16382;59.942;30.472;2023-04-15T09:01:39;11.80;43.00
29403;DHT22;16382;59.942;30.472;2023-04-15T09:04:09;11.80;42.50
29403;DHT22;16382;59.942;30.472;2023-04-15T09:06:39;11.90;42.80
29403;DHT22;16382;59.942;30.472;2023-04-15T09:09:11;12.20;42.40
29403;DHT22;16382;59.942;30.472;2023-04-15T09:11:43;12.30;42.20
29403;DHT22;16382;59.942;30.472;2023-04-15T09:14:12;12.60;41.90
29403;DHT22;16382;59.942;30.472;2023-04-15T09:16:56;12.60;41.50
29403;DHT22;16382;59.942;30.472;2023-04-15T09:19:25;12.80;41.90
29403;DHT22;16382;59.942;30.472;2023-04-15T09:21:57;13.00;41.80
29403;DHT22;16382;59.942;30.472;2023-04-15T09:24:32;13.10;41.10
29403;DHT22;16382;59.942;30.472;2023-04-15T09:27:11;13.10;40.80
29403;DHT22;16382;59.942;30.472;2023-04-15T09:29:53;13.10;41.50
29403;DHT22;16382;59.942;30.472;2023-04-15T09:32:24;13.00;39.50
29403;DHT22;16382;59.942;30.472;2023-04-15T09:34:54;12.80;40.40
29403;DHT22;16382;59.942;30.472;2023-04-15T09:37:34;12.70;41.50
29403;DHT22;16382;59.942;30.472;2023-04-15T09:40:06;12.70;41.90
29403;DHT22;16382;59.942;30.472;2023-04-15T09:42:37;12.80;41.60
29403;DHT22;16382;59.942;30.472;2023-04-15T09:45:23;12.60;42.40
29403;DHT22;16382;59.942;30.472;2023-04-15T09:47:56;12.50;43.20
29403;DHT22;16382;59.942;30.472;2023-04-15T09:50:27;12.30;42.30
29403;DHT22;16382;59.942;30.472;2023-04-15T09:52:56;12.30;43.20
29403;DHT22;16382;59.942;30.472;2023-04-15T09:55:25;12.30;41.90
29403;DHT22;16382;59.942;30.472;2023-04-15T09:57:56;12.20;41.80
29403;DHT22;16382;59.942;30.472;2023-04-15T10:00:26;12.30;41.90
29403;DHT22;16382;59.942;30.472;2023-04-15T10:02:57;12.20;42.20
29403;DHT22;16382;59.942;30.472;2023-04-15T10:05:28;12.30;42.70
29403;DHT22;16382;59.942;30.472;2023-04-15T10:07:58;12.60;43.50
29403;DHT22;16382;59.942;30.472;2023-04-15T10:10:28;12.80;42.00
29403;DHT22;16382;59.942;30.472;2023-04-15T10:13:12;12.80;41.60
29403;DHT22;16382;59.942;30.472;2023-04-15T10:15:44;12.90;41.60
29403;DHT22;16382;59.942;30.472;2023-04-15T10:18:19;13.20;41.30
29403;DHT22;16382;59.942;30.472;2023-04-15T10:20:49;13.40;40.10
29403;DHT22;16382;59.942;30.472;2023-04-15T10:23:19;13.40;39.30
29403;DHT22;16382;59.942;30.472;2023-04-15T10:25:48;13.20;39.40
29403;DHT22;16382;59.942;30.472;2023-04-15T10:28:21;13.20;39.60
29403;DHT22;16382;59.942;30.472;2023-04-15T10:30:50;13.30;39.10
29403;DHT22;16382;59.942;30.472;2023-04-15T10:33:25;13.40;39.30
29403;DHT22;16382;59.942;30.472;2023-04-15T10:35:56;13.50;38.90
29403;DHT22;16382;59.942;30.472;2023-04-15T10:38:33;13.40;38.90
29403;DHT22;16382;59.942;30.472;2023-04-15T10:41:12;13.40;39.40
29403;DHT22;16382;59.942;30.472;2023-04-15T10:43:49;13.10;39.50
29403;DHT22;16382;59.942;30.472;2023-04-15T10:46:22;12.90;39.80
29403;DHT22;16382;59.942;30.472;2023-04-15T10:48:52;13.00;40.10
29403;DHT22;16382;59.942;30.472;2023-04-15T10:51:31;13.20;39.50
29403;DHT22;16382;59.942;30.472;2023-04-15T10:54:05;13.20;39.30
29403;DHT22;16382;59.942;30.472;2023-04-15T10:56:37;12.90;39.70
29403;DHT22;16382;59.942;30.472;2023-04-15T10:59:17;12.70;40.30
29403;DHT22;16382;59.942;30.472;2023-04-15T11:01:53;12.50;40.30
29403;DHT22;16382;59.942;30.472;2023-04-15T11:04:57;12.50;41.20
29403;DHT22;16382;59.942;30.472;2023-04-15T11:07:35;12.40;39.60
29403;DHT22;16382;59.942;30.472;2023-04-15T11:13:30;12.10;40.50
29403;DHT22;16382;59.942;30.472;2023-04-15T11:16:19;12.00;40.40
29403;DHT22;16382;59.942;30.472;2023-04-15T11:18:53;11.90;40.70
29403;DHT22;16382;59.942;30.472;2023-04-15T11:21:24;11.70;41.30
29403;DHT22;16382;59.942;30.472;2023-04-15T11:23:54;11.50;42.00
29403;DHT22;16382;59.942;30.472;2023-04-15T11:26:27;11.40;42.20
29403;DHT22;16382;59.942;30.472;2023-04-15T11:28:56;11.10;42.90
29403;DHT22;16382;59.942;30.472;2023-04-15T11:31:30;10.90;42.60
29403;DHT22;16382;59.942;30.472;2023-04-15T11:33:59;10.70;43.20
29403;DHT22;16382;59.942;30.472;2023-04-15T11:36:30;10.80;43.40
29403;DHT22;16382;59.942;30.472;2023-04-15T11:38:59;10.70;42.80
29403;DHT22;16382;59.942;30.472;2023-04-15T11:41:28;10.60;43.40
29403;DHT22;16382;59.942;30.472;2023-04-15T11:43:56;10.60;43.30
29403;DHT22;16382;59.942;30.472;2023-04-15T11:46:30;10.60;43.60
29403;DHT22;16382;59.942;30.472;2023-04-15T11:48:59;10.50;43.60
29403;DHT22;16382;59.942;30.472;2023-04-15T11:51:31;10.50;43.70
29403;DHT22;16382;59.942;30.472;2023-04-15T11:54:00;10.40;44.20
29403;DHT22;16382;59.942;30.472;2023-04-15T11:56:28;10.30;44.40
29403;DHT22;16382;59.942;30.472;2023-04-15T11:58:58;10.30;43.90
29403;DHT22;16382;59.942;30.472;2023-04-15T12:01:34;10.40;44.50
29403;DHT22;16382;59.942;30.472;2023-04-15T12:04:10;10.50;44.90
29403;DHT22;16382;59.942;30.472;2023-04-15T12:06:38;10.60;44.60
29403;DHT22;16382;59.942;30.472;2023-04-15T12:09:10;10.80;44.50
29403;DHT22;16382;59.942;30.472;2023-04-15T12:11:57;10.90;44.70
29403;DHT22;16382;59.942;30.472;2023-04-15T12:14:39;11.10;44.40
29403;DHT22;16382;59.942;30.472;2023-04-15T12:17:11;11.10;44.00
29403;DHT22;16382;59.942;30.472;2023-04-15T12:19:40;11.20;44.20
29403;DHT22;16382;59.942;30.472;2023-04-15T12:22:17;11.30;43.90
29403;DHT22;16382;59.942;30.472;2023-04-15T12:24:45;11.50;43.60
29403;DHT22;16382;59.942;30.472;2023-04-15T12:27:15;11.70;43.90
29403;DHT22;16382;59.942;30.472;2023-04-15T12:29:43;11.70;42.60
29403;DHT22;16382;59.942;30.472;2023-04-15T12:32:14;11.90;42.60
29403;DHT22;16382;59.942;30.472;2023-04-15T12:34:49;11.90;41.10
29403;DHT22;16382;59.942;30.472;2023-04-15T12:37:18;12.00;40.70
29403;DHT22;16382;59.942;30.472;2023-04-15T12:39:48;11.90;40.20
29403;DHT22;16382;59.942;30.472;2023-04-15T12:42:17;11.80;40.30
29403;DHT22;16382;59.942;30.472;2023-04-15T12:44:45;11.90;40.70
29403;DHT22;16382;59.942;30.472;2023-04-15T12:47:14;12.00;40.30
29403;DHT22;16382;59.942;30.472;2023-04-15T12:49:42;12.00;40.10
29403;DHT22;16382;59.942;30.472;2023-04-15T12:52:10;11.90;40.80
29403;DHT22;16382;59.942;30.472;2023-04-15T12:54:40;12.00;40.20
29403;DHT22;16382;59.942;30.472;2023-04-15T12:57:08;12.10;39.60
29403;DHT22;16382;59.942;30.472;2023-04-15T12:59:38;12.30;39.70
29403;DHT22;16382;59.942;30.472;2023-04-15T13:02:08;12.70;39.50
29403;DHT22;16382;59.942;30.472;2023-04-15T13:04:40;13.10;39.40
29403;DHT22;16382;59.942;30.472;2023-04-15T13:07:09;13.40;38.90
29403;DHT22;16382;59.942;30.472;2023-04-15T13:09:38;13.60;38.60
29403;DHT22;16382;59.942;30.472;2023-04-15T13:12:07;13.40;39.00
29403;DHT22;16382;59.942;30.472;2023-04-15T13:14:51;13.10;39.30
29403;DHT22;16382;59.942;30.472;2023-04-15T13:17:25;12.90;39.20
29403;DHT22;16382;59.942;30.472;2023-04-15T13:20:09;12.80;38.90
29403;DHT22;16382;59.942;30.472;2023-04-15T13:22:40;12.70;39.00
29403;DHT22;16382;59.942;30.472;2023-04-15T13:25:11;12.60;39.40
29403;DHT22;16382;59.942;30.472;2023-04-15T13:27:42;12.50;39.70
29403;DHT22;16382;59.942;30.472;2023-04-15T13:30:11;12.30;39.80
29403;DHT22;16382;59.942;30.472;2023-04-15T13:32:39;12.00;40.10
29403;DHT22;16382;59.942;30.472;2023-04-15T13:35:06;11.90;40.60
29403;DHT22;16382;59.942;30.472;2023-04-15T13:37:36;11.90;40.90
29403;DHT22;16382;59.942;30.472;2023-04-15T13:40:05;12.10;41.60
29403;DHT22;16382;59.942;30.472;2023-04-15T13:42:33;12.20;40.20
29403;DHT22;16382;59.942;30.472;2023-04-15T13:45:01;12.40;40.30
29403;DHT22;16382;59.942;30.472;2023-04-15T13:47:30;12.50;40.20
29403;DHT22;16382;59.942;30.472;2023-04-15T13:49:58;12.70;40.00
29403;DHT22;16382;59.942;30.472;2023-04-15T13:52:27;12.80;39.50
29403;DHT22;16382;59.942;30.472;2023-04-15T13:54:54;12.90;39.40
29403;DHT22;16382;59.942;30.472;2023-04-15T13:57:22;12.90;39.50
29403;DHT22;16382;59.942;30.472;2023-04-15T13:59:49;13.10;39.10
29403;DHT22;16382;59.942;30.472;2023-04-15T14:02:17;13.20;38.90
29403;DHT22;16382;59.942;30.472;2023-04-15T14:04:46;13.10;38.80
29403;DHT22;16382;59.942;30.472;2023-04-15T14:07:14;13.00;38.70
29403;DHT22;16382;59.942;30.472;2023-04-15T14:09:51;12.80;39.50
29403;DHT22;16382;59.942;30.472;2023-04-15T14:12:21;12.70;39.40
29403;DHT22;16382;59.942;30.472;2023-04-15T14:14:51;12.50;39.70
29403;DHT22;16382;59.942;30.472;2023-04-15T14:17:32;12.50;40.30
29403;DHT22;16382;59.942;30.472;2023-04-15T14:20:02;12.30;40.10
29403;DHT22;16382;59.942;30.472;2023-04-15T14:22:30;12.30;40.70
29403;DHT22;16382;59.942;30.472;2023-04-15T14:24:59;12.30;40.10
29403;DHT22;16382;59.942;30.472;2023-04-15T14:27:29;12.30;40.30
29403;DHT22;16382;59.942;30.472;2023-04-15T14:29:56;12.30;38.70
29403;DHT22;16382;59.942;30.472;2023-04-15T14:32:24;12.10;38.20
29403;DHT22;16382;59.942;30.472;2023-04-15T14:34:52;12.00;38.70
29403;DHT22;16382;59.942;30.472;2023-04-15T14:37:26;11.80;39.00
29403;DHT22;16382;59.942;30.472;2023-04-15T14:43:54;11.70;40.20
29403;DHT22;16382;59.942;30.472;2023-04-15T14:46:22;11.60;40.00
29403;DHT22;16382;59.942;30.472;2023-04-15T14:48:49;11.50;39.90
29403;DHT22;16382;59.942;30.472;2023-04-15T14:51:17;11.40;40.70
29403;DHT22;16382;59.942;30.472;2023-04-15T14:53:45;11.30;41.10
29403;DHT22;16382;59.942;30.472;2023-04-15T14:56:15;11.10;41.20
29403;DHT22;16382;59.942;30.472;2023-04-15T14:58:55;11.00;41.40
29403;DHT22;16382;59.942;30.472;2023-04-15T15:05:40;10.90;41.50
29403;DHT22;16382;59.942;30.472;2023-04-15T15:08:10;10.90;41.00
29403;DHT22;16382;59.942;30.472;2023-04-15T15:10:41;10.80;41.40
29403;DHT22;16382;59.942;30.472;2023-04-15T15:13:09;10.60;41.80
29403;DHT22;16382;59.942;30.472;2023-04-15T15:15:41;10.50;41.50
29403;DHT22;16382;59.942;30.472;2023-04-15T15:18:09;10.30;41.80
29403;DHT22;16382;59.942;30.472;2023-04-15T15:20:39;10.30;41.90
29403;DHT22;16382;59.942;30.472;2023-04-15T15:23:09;10.30;42.20
29403;DHT22;16382;59.942;30.472;2023-04-15T15:25:39;10.20;42.10
29403;DHT22;16382;59.942;30.472;2023-04-15T15:28:06;10.10;42.70
29403;DHT22;16382;59.942;30.472;2023-04-15T15:30:36;10.10;42.40
29403;DHT22;16382;59.942;30.472;2023-04-15T15:33:05;10.00;42.50
29403;DHT22;16382;59.942;30.472;2023-04-15T15:35:32;10.00;42.70
29403;DHT22;16382;59.942;30.472;2023-04-15T15:38:00;9.90;43.50
29403;DHT22;16382;59.942;30.472;2023-04-15T15:40:28;9.90;43.40
29403;DHT22;16382;59.942;30.472;2023-04-15T15:42:55;10.00;43.70
29403;DHT22;16382;59.942;30.472;2023-04-15T15:45:23;10.00;43.60
29403;DHT22;16382;59.942;30.472;2023-04-15T15:47:50;10.00;43.70
29403;DHT22;16382;59.942;30.472;2023-04-15T15:50:19;10.00;43.30
29403;DHT22;16382;59.942;30.472;2023-04-15T15:52:48;10.10;43.60
29403;DHT22;16382;59.942;30.472;2023-04-15T15:55:16;10.10;43.90